Time;durP1;ratioP1;P1;durP2;ratioP2;P2;SDS_P1;SDS_P2;PMS_P1;PMS_P2;Temp;Humidity;BMP_temperature;BMP_pressure;BME280_temperature;BME280_humidity;BME280_pressure;Samples;Min_cycle;Max_cycle;Signal;HPM_P1;HPM_P2
2022/01/16 00:00:42;;;;;;;13.63;6.40;;;4.10;99.90;;;;;;5074350;28;20450;-72
2022/01/16 00:05:55;;;;;;;13.17;7.33;;;4.10;99.90;;;;;;5074581;28;20769;-72
2022/01/16 00:08:22;;;;;;;11.70;6.50;;;4.10;99.90;;;;;;5074675;28;20466;-72
2022/01/16 00:10:48;;;;;;;14.03;7.33;;;4.00;99.90;;;;;;5074416;28;21037;-71
2022/01/16 00:13:16;;;;;;;15.00;7.83;;;3.90;99.90;;;;;;5074662;28;20469;-72
2022/01/16 00:15:44;;;;;;;27.00;8.67;;;4.00;99.90;;;;;;5074750;28;20454;-72
2022/01/16 00:18:20;;;;;;;16.70;7.77;;;3.90;99.90;;;;;;5074296;28;20942;-71
2022/01/16 00:20:47;;;;;;;17.70;8.70;;;3.80;99.90;;;;;;5074783;28;20438;-71
2022/01/16 00:23:22;;;;;;;19.43;9.97;;;3.80;99.90;;;;;;5074450;28;20536;-71
2022/01/16 00:25:48;;;;;;;22.93;8.40;;;3.70;99.90;;;;;;5074757;28;20438;-72
2022/01/16 00:28:16;;;;;;;16.20;9.30;;;3.70;99.90;;;;;;5074677;28;20458;-72
2022/01/16 00:30:43;;;;;;;18.30;8.93;;;3.80;99.90;;;;;;5074713;28;20551;-73
2022/01/16 00:33:12;;;;;;;16.73;9.27;;;3.80;99.90;;;;;;5074591;28;20479;-72
2022/01/16 00:35:39;;;;;;;15.37;9.70;;;3.80;99.90;;;;;;5074636;28;20469;-71
2022/01/16 00:38:06;;;;;;;20.97;9.03;;;3.90;99.90;;;;;;5074745;28;20458;-71
2022/01/16 00:40:33;;;;;;;18.60;10.20;;;3.80;99.90;;;;;;5074126;28;20466;-71
2022/01/16 00:43:00;;;;;;;15.93;8.63;;;3.90;99.90;;;;;;5075228;28;20454;-71
2022/01/16 00:45:33;;;;;;;20.40;9.77;;;3.90;99.90;;;;;;5076459;28;20454;-71
2022/01/16 00:48:00;;;;;;;21.37;8.83;;;3.90;99.90;;;;;;5077190;28;20482;-71
2022/01/16 00:50:27;;;;;;;14.03;8.07;;;3.80;99.90;;;;;;5077474;28;20838;-72
2022/01/16 00:52:54;;;;;;;21.47;8.27;;;3.80;99.90;;;;;;5078950;28;20450;-72
2022/01/16 00:55:21;;;;;;;21.60;9.07;;;3.80;99.90;;;;;;5080287;28;20454;-72
2022/01/16 00:57:48;;;;;;;20.43;8.43;;;3.70;99.90;;;;;;5080004;28;20496;-72
2022/01/16 01:00:16;;;;;;;20.00;8.20;;;3.80;99.90;;;;;;5079985;28;20450;-72
2022/01/16 01:02:45;;;;;;;13.10;7.63;;;3.70;99.90;;;;;;5078651;28;20726;-72
2022/01/16 01:05:13;;;;;;;16.97;8.90;;;3.50;99.90;;;;;;5077665;28;20462;-71
2022/01/16 01:07:41;;;;;;;21.30;8.50;;;3.50;99.90;;;;;;5078049;28;20524;-72
2022/01/16 01:10:09;;;;;;;15.57;7.57;;;3.50;99.90;;;;;;5077742;28;20465;-72
2022/01/16 01:12:52;;;;;;;12.10;7.30;;;3.50;99.90;;;;;;5077650;28;20458;-73
2022/01/16 01:15:20;;;;;;;12.00;7.20;;;3.50;99.90;;;;;;5077411;28;20474;-72
2022/01/16 01:17:50;;;;;;;20.20;7.13;;;3.50;99.90;;;;;;5077605;28;20462;-71
2022/01/16 01:20:19;;;;;;;14.10;7.27;;;3.50;99.90;;;;;;5077701;28;20458;-71
2022/01/16 01:22:47;;;;;;;17.37;7.40;;;3.50;99.90;;;;;;5077736;28;20494;-72
2022/01/16 01:25:16;;;;;;;20.97;10.73;;;3.50;99.90;;;;;;5077366;28;20458;-72
2022/01/16 01:27:44;;;;;;;17.77;8.13;;;3.40;99.90;;;;;;5078195;28;20454;-71
2022/01/16 01:30:13;;;;;;;18.63;8.37;;;3.50;99.90;;;;;;5083121;28;20505;-72
2022/01/16 01:32:41;;;;;;;19.43;8.03;;;3.40;99.90;;;;;;5080429;28;20458;-71
2022/01/16 01:35:12;;;;;;;19.90;7.70;;;3.40;99.90;;;;;;5080561;28;20466;-72
2022/01/16 01:37:39;;;;;;;18.53;8.37;;;3.50;99.90;;;;;;5077544;28;20446;-72
2022/01/16 01:40:11;;;;;;;19.50;8.07;;;3.50;99.90;;;;;;5077208;28;20462;-72
2022/01/16 01:42:48;;;;;;;15.80;7.57;;;3.50;99.90;;;;;;5077493;28;20492;-71
2022/01/16 01:51:08;;;;;;;15.27;7.90;;;3.40;99.90;;;;;;5076890;28;20519;-72
2022/01/16 01:53:36;;;;;;;18.93;8.43;;;3.40;99.90;;;;;;5076823;28;20469;-72
2022/01/16 01:56:03;;;;;;;17.23;8.90;;;3.30;99.90;;;;;;5077148;28;20454;-71
2022/01/16 01:58:30;;;;;;;11.77;8.17;;;3.20;99.90;;;;;;5076323;28;20907;-71
2022/01/16 02:00:57;;;;;;;15.23;7.77;;;3.20;99.90;;;;;;5076625;28;20446;-71
2022/01/16 02:03:30;;;;;;;17.57;8.33;;;3.20;99.90;;;;;;5075481;28;20462;-71
2022/01/16 02:05:57;;;;;;;15.60;7.53;;;3.10;99.90;;;;;;5076240;28;20456;-71
2022/01/16 02:08:26;;;;;;;23.70;8.20;;;3.10;99.90;;;;;;5076336;28;20560;-72
2022/01/16 02:10:53;;;;;;;18.40;8.40;;;3.20;99.90;;;;;;5076146;28;20501;-71
2022/01/16 02:13:22;;;;;;;17.60;9.20;;;3.20;99.90;;;;;;5075684;28;20462;-71
2022/01/16 02:32:48;;;;;;;22.07;6.60;;;3.80;99.90;;;;;;5075806;28;20599;-72
2022/01/16 02:35:15;;;;;;;13.20;6.90;;;3.80;99.90;;;;;;5075883;28;20496;-72
2022/01/16 02:37:45;;;;;;;18.53;6.27;;;3.90;99.90;;;;;;5075567;28;20455;-72
2022/01/16 02:40:23;;;;;;;13.63;6.90;;;3.90;99.90;;;;;;5076146;28;20458;-72
2022/01/16 02:42:52;;;;;;;16.73;6.70;;;4.00;99.90;;;;;;5075565;28;20451;-72
2022/01/16 02:45:31;;;;;;;17.23;6.53;;;3.90;99.90;;;;;;5075440;28;20468;-72
2022/01/16 02:48:01;;;;;;;14.73;6.07;;;3.80;99.90;;;;;;5075401;28;20516;-72
2022/01/16 02:50:29;;;;;;;13.23;7.30;;;3.80;99.90;;;;;;5075531;28;20461;-73
2022/01/16 02:52:56;;;;;;;19.20;8.27;;;3.70;99.90;;;;;;5075138;28;20461;-72
2022/01/16 02:55:25;;;;;;;18.53;7.73;;;3.80;99.90;;;;;;5075295;28;20458;-72
2022/01/16 02:57:53;;;;;;;21.73;7.10;;;3.70;99.90;;;;;;5074969;28;20529;-72
2022/01/16 03:00:21;;;;;;;15.20;7.43;;;3.70;99.90;;;;;;5075237;28;20466;-72
2022/01/16 03:02:49;;;;;;;13.30;6.87;;;3.70;99.90;;;;;;5075206;28;20450;-72
2022/01/16 03:05:16;;;;;;;15.20;7.17;;;3.70;99.90;;;;;;5075217;28;20488;-72
2022/01/16 03:07:44;;;;;;;20.17;7.93;;;3.50;99.90;;;;;;5075193;28;20753;-72
2022/01/16 03:13:14;;;;;;;22.37;7.57;;;3.40;99.90;;;;;;4994297;28;20465;-72
2022/01/16 03:15:41;;;;;;;17.20;8.13;;;3.40;99.90;;;;;;5057115;28;20835;-72
2022/01/16 03:23:38;;;;;;;14.40;7.37;;;3.30;99.90;;;;;;5078293;28;20434;-72
2022/01/16 03:26:05;;;;;;;28.70;8.80;;;3.20;99.90;;;;;;5080524;28;20914;-72
2022/01/16 03:28:33;;;;;;;16.73;8.10;;;3.00;99.90;;;;;;5077446;28;20763;-72
2022/01/16 03:31:00;;;;;;;18.87;7.17;;;2.90;99.90;;;;;;5078771;28;20478;-72
2022/01/16 03:33:27;;;;;;;17.90;8.13;;;2.90;99.90;;;;;;5077702;28;20798;-72
2022/01/16 03:35:53;;;;;;;19.97;7.80;;;2.80;99.90;;;;;;5079614;28;20451;-72
2022/01/16 03:38:20;;;;;;;18.50;7.77;;;2.70;99.90;;;;;;5078414;28;20516;-72
2022/01/16 03:40:47;;;;;;;21.63;8.07;;;2.60;99.90;;;;;;5077440;28;20469;-72
2022/01/16 03:43:14;;;;;;;21.37;7.07;;;2.50;99.90;;;;;;5076034;28;20557;-72
2022/01/16 03:45:44;;;;;;;17.93;8.10;;;2.50;99.90;;;;;;5075375;28;20969;-72
2022/01/16 03:48:11;;;;;;;25.40;7.80;;;2.50;99.90;;;;;;5075161;28;20482;-72
2022/01/16 03:50:38;;;;;;;28.50;8.07;;;2.50;99.90;;;;;;5075063;28;20840;-72
2022/01/16 03:53:06;;;;;;;28.03;7.80;;;2.50;99.90;;;;;;5074978;28;20442;-72
2022/01/16 03:55:33;;;;;;;16.43;6.83;;;2.50;99.90;;;;;;5074838;28;20527;-72
2022/01/16 03:58:00;;;;;;;21.70;7.20;;;2.40;99.90;;;;;;5074810;28;20469;-72
2022/01/16 04:00:27;;;;;;;17.33;7.30;;;2.30;99.90;;;;;;5074603;28;20469;-72
2022/01/16 04:02:55;;;;;;;20.83;6.40;;;2.20;99.90;;;;;;5074687;28;20464;-71
2022/01/16 04:05:22;;;;;;;16.00;5.40;;;2.30;99.90;;;;;;5074784;28;20527;-72
2022/01/16 04:07:49;;;;;;;30.03;7.20;;;2.30;99.90;;;;;;5074468;28;20458;-72
2022/01/16 04:10:17;;;;;;;19.77;6.60;;;2.30;99.90;;;;;;5074556;28;20453;-72
2022/01/16 04:12:46;;;;;;;16.10;6.50;;;2.20;99.90;;;;;;5074602;28;20794;-71
2022/01/16 04:17:58;;;;;;;21.33;5.90;;;2.20;99.90;;;;;;5074596;28;20425;-71
2022/01/16 04:20:25;;;;;;;15.63;6.77;;;2.10;99.90;;;;;;5074386;28;20459;-72
2022/01/16 04:22:52;;;;;;;24.50;5.57;;;2.20;99.90;;;;;;5074194;28;20454;-72
2022/01/16 04:25:19;;;;;;;16.73;6.33;;;2.20;99.90;;;;;;5074481;28;20535;-72
2022/01/16 04:27:46;;;;;;;21.60;6.87;;;2.20;99.90;;;;;;5076066;28;20910;-72
2022/01/16 04:30:16;;;;;;;20.67;6.00;;;2.10;99.90;;;;;;5078203;28;20461;-72
2022/01/16 04:32:43;;;;;;;17.63;6.33;;;2.10;99.90;;;;;;5078005;28;20486;-71
2022/01/16 04:35:12;;;;;;;11.03;6.00;;;2.00;99.90;;;;;;5077664;28;20462;-72
2022/01/16 04:37:40;;;;;;;23.70;6.83;;;1.90;99.90;;;;;;5078072;28;20545;-72
2022/01/16 04:40:08;;;;;;;20.47;6.50;;;1.90;99.90;;;;;;5078030;28;20454;-72
2022/01/16 04:45:19;;;;;;;19.20;5.77;;;2.00;99.90;;;;;;5078042;28;20464;-75
2022/01/16 04:47:47;;;;;;;16.23;6.77;;;1.90;99.90;;;;;;5078097;28;20492;-72
2022/01/16 04:50:15;;;;;;;20.53;6.77;;;1.90;99.90;;;;;;5078998;28;20773;-72
2022/01/16 04:52:43;;;;;;;20.70;6.00;;;1.80;99.90;;;;;;5078102;28;20484;-72
2022/01/16 04:55:12;;;;;;;21.20;6.00;;;1.80;99.90;;;;;;5078194;28;20749;-72
2022/01/16 04:57:40;;;;;;;13.00;6.30;;;1.70;99.90;;;;;;5077788;28;20838;-72
2022/01/16 05:00:10;;;;;;;16.63;5.90;;;1.80;99.90;;;;;;5077565;28;20450;-72
2022/01/16 05:02:38;;;;;;;17.00;6.90;;;1.80;99.90;;;;;;5077256;28;20937;-72
2022/01/16 05:05:05;;;;;;;13.40;5.67;;;1.70;99.90;;;;;;5078426;28;20481;-72
2022/01/16 05:07:33;;;;;;;19.93;7.77;;;1.80;99.90;;;;;;5077413;28;20488;-72
2022/01/16 05:10:00;;;;;;;13.70;5.30;;;1.70;99.90;;;;;;5077413;28;20454;-72
2022/01/16 05:12:32;;;;;;;17.90;5.37;;;1.80;99.90;;;;;;5077687;28;20482;-72
2022/01/16 05:17:43;;;;;;;20.87;5.77;;;1.80;99.90;;;;;;5077396;28;20433;-72
2022/01/16 05:20:13;;;;;;;18.63;6.57;;;1.80;99.90;;;;;;5077465;28;20469;-72
2022/01/16 05:22:42;;;;;;;16.97;5.93;;;1.80;99.90;;;;;;5077408;28;20450;-71
2022/01/16 05:25:12;;;;;;;21.73;7.50;;;1.80;99.90;;;;;;5077201;28;20458;-71
2022/01/16 05:27:40;;;;;;;15.53;6.80;;;1.80;99.90;;;;;;5077272;28;20446;-73
2022/01/16 05:30:08;;;;;;;20.00;7.03;;;1.70;99.90;;;;;;5077012;28;20549;-71
2022/01/16 05:32:35;;;;;;;15.73;6.20;;;1.70;99.90;;;;;;5077296;28;20829;-72
2022/01/16 05:35:02;;;;;;;15.30;6.53;;;1.70;99.90;;;;;;5076853;28;20461;-73
2022/01/16 05:37:29;;;;;;;15.30;6.20;;;1.70;99.90;;;;;;5076522;28;20454;-72
2022/01/16 05:39:57;;;;;;;10.00;5.73;;;1.70;99.90;;;;;;5076697;28;20537;-71
2022/01/16 05:42:24;;;;;;;15.43;6.47;;;1.60;99.90;;;;;;5077095;28;20455;-71
2022/01/16 05:44:51;;;;;;;22.23;6.83;;;1.50;99.90;;;;;;5077141;28;20523;-71
2022/01/16 05:47:18;;;;;;;19.30;6.90;;;1.50;99.90;;;;;;5076497;28;20474;-71
2022/01/16 05:49:44;;;;;;;27.53;8.33;;;1.50;99.90;;;;;;5076946;28;20442;-71
2022/01/16 05:52:12;;;;;;;15.70;7.53;;;1.40;99.90;;;;;;5076613;28;20535;-72
2022/01/16 05:54:39;;;;;;;17.30;7.67;;;1.40;99.90;;;;;;5077798;28;20933;-72
2022/01/16 05:57:08;;;;;;;28.53;8.20;;;1.30;99.90;;;;;;5077417;28;20451;-72
2022/01/16 05:59:35;;;;;;;16.10;7.10;;;1.30;99.90;;;;;;5077507;28;20828;-71
2022/01/16 06:02:01;;;;;;;19.43;7.37;;;1.30;99.90;;;;;;5077038;28;20455;-72
2022/01/16 06:04:28;;;;;;;19.03;7.70;;;1.20;99.90;;;;;;5076766;28;20458;-71
2022/01/16 06:06:56;;;;;;;17.90;7.27;;;1.20;99.90;;;;;;5077072;28;20461;-71
2022/01/16 06:09:25;;;;;;;15.50;7.23;;;1.10;99.90;;;;;;5076942;28;20459;-72
2022/01/16 06:11:53;;;;;;;20.40;7.73;;;1.10;99.90;;;;;;5077175;28;20489;-72
2022/01/16 06:14:22;;;;;;;17.33;8.50;;;1.10;99.90;;;;;;5076592;28;20504;-72
2022/01/16 06:16:48;;;;;;;25.60;8.57;;;1.20;99.90;;;;;;5076159;28;20490;-72
2022/01/16 06:19:15;;;;;;;23.80;8.80;;;1.20;99.90;;;;;;5076234;28;20453;-72
2022/01/16 06:21:42;;;;;;;23.17;10.73;;;1.20;99.90;;;;;;5075770;28;20489;-72
2022/01/16 06:24:09;;;;;;;18.17;7.80;;;1.10;99.90;;;;;;5076229;28;20474;-72
2022/01/16 06:26:35;;;;;;;19.10;7.63;;;1.10;99.90;;;;;;5075612;28;20464;-71
2022/01/16 06:29:02;;;;;;;25.37;8.93;;;1.20;99.90;;;;;;5075832;28;20926;-71
2022/01/16 06:31:31;;;;;;;19.40;8.43;;;1.20;99.90;;;;;;5075626;28;20462;-72
2022/01/16 06:33:59;;;;;;;20.83;9.50;;;1.30;99.90;;;;;;5075756;28;20458;-72
2022/01/16 06:36:25;;;;;;;17.80;9.53;;;1.30;99.90;;;;;;5075489;28;20532;-71
2022/01/16 06:38:53;;;;;;;24.23;10.57;;;1.20;99.90;;;;;;5075629;28;20466;-71
2022/01/16 06:41:20;;;;;;;18.60;9.90;;;1.10;99.90;;;;;;5075795;28;20458;-72
2022/01/16 06:43:47;;;;;;;22.23;10.53;;;1.20;99.90;;;;;;5075958;28;20789;-72
2022/01/16 06:46:16;;;;;;;18.40;10.13;;;1.20;99.90;;;;;;5075860;28;20458;-72
2022/01/16 06:48:44;;;;;;;20.97;10.97;;;1.20;99.90;;;;;;5075241;28;20486;-72
2022/01/16 06:51:11;;;;;;;20.40;10.53;;;1.30;99.90;;;;;;5075070;28;20458;-72
2022/01/16 06:53:37;;;;;;;26.83;11.17;;;1.20;99.90;;;;;;5075386;28;20474;-72
2022/01/16 06:56:05;;;;;;;30.37;11.43;;;1.20;99.90;;;;;;5075432;28;20454;-72
2022/01/16 06:58:32;;;;;;;21.07;11.07;;;1.20;99.90;;;;;;5075210;28;20787;-72
2022/01/16 07:00:59;;;;;;;24.47;10.20;;;1.20;99.90;;;;;;5075519;28;20458;-72
2022/01/16 07:03:27;;;;;;;21.77;12.10;;;1.30;99.90;;;;;;5075519;28;20462;-72
2022/01/16 07:05:55;;;;;;;21.20;11.07;;;1.20;99.90;;;;;;5075156;28;20791;-72
2022/01/16 07:08:23;;;;;;;20.13;11.43;;;1.10;99.90;;;;;;5075317;28;20454;-73
2022/01/16 07:10:51;;;;;;;25.57;11.43;;;1.10;99.90;;;;;;5074840;28;20462;-71
2022/01/16 07:13:18;;;;;;;30.40;12.73;;;1.10;99.90;;;;;;5075504;28;20506;-72
2022/01/16 07:15:44;;;;;;;26.43;11.90;;;1.10;99.90;;;;;;5075003;28;20791;-71
2022/01/16 07:18:11;;;;;;;23.30;11.83;;;1.10;99.90;;;;;;5075151;28;20532;-71
2022/01/16 07:20:38;;;;;;;26.07;11.30;;;1.00;99.90;;;;;;5075156;28;20553;-72
2022/01/16 07:23:06;;;;;;;25.63;12.50;;;1.00;99.90;;;;;;5074958;28;20512;-72
2022/01/16 07:25:33;;;;;;;23.63;11.50;;;1.00;99.90;;;;;;5075153;28;20454;-72
2022/01/16 07:28:02;;;;;;;18.90;10.97;;;1.10;99.90;;;;;;5074665;28;20562;-73
2022/01/16 07:30:29;;;;;;;23.63;12.00;;;1.10;99.90;;;;;;5075121;28;20481;-72
2022/01/16 07:32:56;;;;;;;19.60;11.70;;;1.20;99.90;;;;;;5074889;28;20513;-72
2022/01/16 07:35:23;;;;;;;20.80;13.10;;;1.20;99.90;;;;;;5074429;28;20458;-72
2022/01/16 07:37:51;;;;;;;25.73;11.77;;;1.20;99.90;;;;;;5074675;28;20911;-72
2022/01/16 07:40:20;;;;;;;21.20;12.23;;;1.30;99.90;;;;;;5074626;28;20454;-71
2022/01/16 07:42:47;;;;;;;21.67;13.47;;;1.40;99.90;;;;;;5074714;28;20759;-72
2022/01/16 07:45:13;;;;;;;20.40;12.30;;;1.30;99.90;;;;;;5074572;28;20529;-72
2022/01/16 07:47:40;;;;;;;25.43;15.17;;;1.30;99.90;;;;;;5074425;28;20489;-73
2022/01/16 07:50:08;;;;;;;23.57;12.10;;;1.40;99.90;;;;;;5074881;28;20457;-73
2022/01/16 07:52:37;;;;;;;21.57;13.67;;;1.40;99.90;;;;;;5074721;28;20977;-72
2022/01/16 07:55:04;;;;;;;23.30;15.10;;;1.40;99.90;;;;;;5074861;28;20464;-72
2022/01/16 07:57:32;;;;;;;20.63;13.83;;;1.40;99.90;;;;;;5074571;28;20459;-72
2022/01/16 07:59:59;;;;;;;27.33;14.60;;;1.40;99.90;;;;;;5074784;28;20462;-72
2022/01/16 08:02:26;;;;;;;22.83;14.67;;;1.40;99.90;;;;;;5077696;28;20465;-72
2022/01/16 08:04:53;;;;;;;21.43;14.40;;;1.40;99.90;;;;;;5079156;28;20462;-72
2022/01/16 08:07:20;;;;;;;23.07;13.93;;;1.40;99.90;;;;;;5079681;28;20580;-72
2022/01/16 08:09:47;;;;;;;23.00;14.13;;;1.50;99.90;;;;;;5078719;28;20494;-72
2022/01/16 08:12:14;;;;;;;25.77;14.33;;;1.50;99.90;;;;;;5078432;28;20493;-72
2022/01/16 08:14:42;;;;;;;26.30;15.23;;;1.50;99.90;;;;;;5079223;28;20464;-72
2022/01/16 08:17:09;;;;;;;27.40;16.50;;;1.50;99.90;;;;;;5079336;28;20454;-72
2022/01/16 08:19:36;;;;;;;22.33;15.63;;;1.50;99.90;;;;;;5078365;28;20458;-76
2022/01/16 08:22:07;;;;;;;28.47;16.10;;;1.50;99.90;;;;;;5078724;28;20848;-73
2022/01/16 08:24:34;;;;;;;24.90;15.40;;;1.60;99.90;;;;;;5078475;28;20452;-71
2022/01/16 08:27:00;;;;;;;21.90;15.90;;;1.60;99.90;;;;;;5078137;28;20458;-72
2022/01/16 08:29:27;;;;;;;26.23;15.80;;;1.60;99.90;;;;;;5078057;28;20968;-72
2022/01/16 08:31:55;;;;;;;30.57;15.60;;;1.60;99.90;;;;;;5078155;28;20458;-72
2022/01/16 08:34:22;;;;;;;24.40;14.97;;;1.70;99.90;;;;;;5077530;28;20478;-72
2022/01/16 08:36:49;;;;;;;25.70;15.77;;;1.70;99.90;;;;;;5078291;28;20539;-72
2022/01/16 08:39:15;;;;;;;23.23;14.80;;;1.70;99.90;;;;;;5078862;28;20546;-71
2022/01/16 08:41:42;;;;;;;26.20;16.43;;;1.80;99.90;;;;;;5078985;28;20505;-72
2022/01/16 08:44:09;;;;;;;32.60;15.87;;;1.70;99.90;;;;;;5078633;28;20465;-72
2022/01/16 08:46:36;;;;;;;23.27;14.80;;;1.80;99.90;;;;;;5077837;28;20457;-72
2022/01/16 08:49:04;;;;;;;28.90;15.80;;;1.80;99.90;;;;;;5078023;28;20801;-72
2022/01/16 08:51:31;;;;;;;22.33;15.20;;;1.90;99.90;;;;;;5077724;28;20515;-72
2022/01/16 08:53:57;;;;;;;26.60;17.47;;;2.00;99.90;;;;;;5077816;28;20485;-72
2022/01/16 08:56:26;;;;;;;26.80;14.87;;;2.10;99.90;;;;;;5077416;28;20453;-72
2022/01/16 08:58:52;;;;;;;25.90;15.23;;;2.10;99.90;;;;;;5077426;28;20465;-72
2022/01/16 09:01:19;;;;;;;26.87;15.87;;;2.10;99.90;;;;;;5077355;28;20453;-73
2022/01/16 09:03:47;;;;;;;25.50;14.70;;;2.10;99.90;;;;;;5077653;28;20472;-73
2022/01/16 09:06:15;;;;;;;24.63;16.03;;;2.10;99.90;;;;;;5077827;28;20453;-70
2022/01/16 09:08:42;;;;;;;20.97;14.33;;;2.10;99.90;;;;;;5077516;28;20476;-72
2022/01/16 09:11:08;;;;;;;26.70;15.33;;;2.00;99.90;;;;;;5078238;28;20454;-71
2022/01/16 09:13:37;;;;;;;20.40;14.70;;;2.00;99.90;;;;;;5076480;28;20474;-73
2022/01/16 09:16:04;;;;;;;23.03;16.07;;;2.10;99.90;;;;;;5077336;28;20553;-72
2022/01/16 09:18:32;;;;;;;28.23;17.10;;;2.10;99.90;;;;;;5077248;28;20458;-72
2022/01/16 09:21:00;;;;;;;25.70;15.73;;;2.20;99.90;;;;;;5076903;28;20461;-72
2022/01/16 09:23:28;;;;;;;26.33;15.77;;;2.20;99.90;;;;;;5077788;28;20462;-72
2022/01/16 09:25:55;;;;;;;27.60;14.73;;;2.30;99.90;;;;;;5077393;28;20789;-73
2022/01/16 09:28:22;;;;;;;23.67;14.30;;;2.30;99.90;;;;;;5077525;28;20457;-73
2022/01/16 09:30:49;;;;;;;25.83;16.63;;;2.40;99.90;;;;;;5076859;28;20802;-72
2022/01/16 09:33:16;;;;;;;28.37;16.83;;;2.40;99.90;;;;;;5076923;28;20486;-72
2022/01/16 09:35:43;;;;;;;24.80;15.07;;;2.40;99.90;;;;;;5077014;28;20470;-74
2022/01/16 09:38:10;;;;;;;21.30;15.23;;;2.50;99.90;;;;;;5076811;28;20469;-72
2022/01/16 09:40:38;;;;;;;22.87;14.57;;;2.50;99.90;;;;;;5077069;28;20462;-73
2022/01/16 09:43:05;;;;;;;26.03;15.20;;;2.50;99.90;;;;;;5077398;28;20859;-73
2022/01/16 09:45:32;;;;;;;22.57;15.00;;;2.50;99.90;;;;;;5077332;28;20470;-72
2022/01/16 09:47:59;;;;;;;20.80;14.47;;;2.60;99.90;;;;;;5076935;28;20556;-72
2022/01/16 09:50:27;;;;;;;24.40;14.40;;;2.60;99.90;;;;;;5080436;28;20454;-72
2022/01/16 09:52:54;;;;;;;23.93;14.03;;;2.70;99.90;;;;;;5079606;28;20482;-71
2022/01/16 09:55:22;;;;;;;27.20;15.80;;;2.80;99.90;;;;;;5080512;28;20465;-72
2022/01/16 09:57:50;;;;;;;20.70;14.97;;;2.80;99.90;;;;;;5080236;28;20450;-71
2022/01/16 10:00:20;;;;;;;28.07;15.80;;;2.80;99.90;;;;;;5079983;28;20968;-73
2022/01/16 10:02:47;;;;;;;25.67;14.07;;;2.80;99.90;;;;;;5080503;28;20458;-72
2022/01/16 10:05:29;;;;;;;23.77;15.90;;;2.80;99.90;;;;;;5078868;28;20454;-72
2022/01/16 10:07:58;;;;;;;33.20;16.63;;;2.80;99.90;;;;;;5079490;28;20438;-71
2022/01/16 10:10:27;;;;;;;23.73;15.40;;;2.90;99.90;;;;;;5078574;28;20454;-71
2022/01/16 10:13:03;;;;;;;24.47;14.20;;;2.90;99.90;;;;;;5078301;28;20832;-71
2022/01/16 10:15:30;;;;;;;27.50;16.60;;;3.00;99.90;;;;;;5077873;28;20446;-72
2022/01/16 10:17:59;;;;;;;31.07;18.27;;;2.90;99.90;;;;;;5077227;28;20454;-71
2022/01/16 10:20:27;;;;;;;34.23;17.90;;;2.90;99.90;;;;;;5077855;28;20793;-72
2022/01/16 10:22:56;;;;;;;31.23;18.60;;;2.80;99.90;;;;;;5077540;28;20519;-72
2022/01/16 10:25:37;;;;;;;32.30;18.40;;;2.70;99.90;;;;;;5075899;28;20459;-72
2022/01/16 10:28:13;;;;;;;33.27;19.10;;;2.50;99.90;;;;;;5076457;28;20447;-73
2022/01/16 10:30:41;;;;;;;26.43;18.03;;;2.50;99.90;;;;;;5076537;28;20441;-72
2022/01/16 10:33:13;;;;;;;28.17;16.90;;;2.30;99.90;;;;;;5076434;28;20609;-72
2022/01/16 10:35:42;;;;;;;28.93;18.30;;;2.20;99.90;;;;;;5075558;28;20453;-72
2022/01/16 10:38:10;;;;;;;27.93;18.73;;;2.00;99.90;;;;;;5075847;28;20473;-71
2022/01/16 10:40:39;;;;;;;27.57;16.90;;;1.80;99.90;;;;;;5075802;28;20458;-72
2022/01/16 10:43:13;;;;;;;30.90;19.37;;;1.70;99.90;;;;;;5075869;28;20469;-72
2022/01/16 10:45:40;;;;;;;32.83;18.33;;;1.60;99.90;;;;;;5076013;28;20550;-72
2022/01/16 10:48:08;;;;;;;29.43;19.60;;;1.50;99.90;;;;;;5075361;28;20496;-72
2022/01/16 10:50:36;;;;;;;31.90;20.20;;;1.40;99.90;;;;;;5076179;28;20815;-72
2022/01/16 10:53:05;;;;;;;31.53;18.70;;;1.40;99.90;;;;;;5075939;28;20785;-71
2022/01/16 10:55:36;;;;;;;32.73;18.37;;;1.50;99.90;;;;;;5075574;28;20502;-72
2022/01/16 10:58:05;;;;;;;31.00;20.00;;;1.40;99.90;;;;;;5076844;28;20602;-73
2022/01/16 11:00:34;;;;;;;34.50;19.10;;;1.40;99.90;;;;;;5075711;28;20458;-72
2022/01/16 11:03:04;;;;;;;35.17;19.70;;;1.50;99.90;;;;;;5075263;28;20469;-72
2022/01/16 11:05:34;;;;;;;34.83;18.77;;;1.60;99.90;;;;;;5075340;28;20759;-72
2022/01/16 11:08:04;;;;;;;34.47;18.83;;;1.60;99.90;;;;;;5075288;28;20851;-73
2022/01/16 11:10:32;;;;;;;31.23;19.23;;;1.60;99.90;;;;;;5075420;28;20461;-72
2022/01/16 11:13:01;;;;;;;31.13;20.20;;;1.60;99.90;;;;;;5075655;28;20545;-73
2022/01/16 11:15:29;;;;;;;31.30;19.40;;;1.60;99.90;;;;;;5075918;28;20489;-71
2022/01/16 11:17:57;;;;;;;35.53;19.70;;;1.70;99.90;;;;;;5075905;28;20946;-72
2022/01/16 11:20:31;;;;;;;34.57;18.93;;;1.70;99.90;;;;;;5075656;28;20466;-71
2022/01/16 11:23:01;;;;;;;34.87;20.63;;;1.80;99.90;;;;;;5075886;28;20917;-70
2022/01/16 11:25:33;;;;;;;35.80;18.17;;;1.80;99.90;;;;;;5075094;28;20443;-72
2022/01/16 11:28:08;;;;;;;36.30;20.90;;;1.90;99.90;;;;;;5075863;28;20775;-72
2022/01/16 11:30:37;;;;;;;32.67;19.30;;;1.90;99.90;;;;;;5076230;28;20733;-71
2022/01/16 11:33:06;;;;;;;36.63;18.30;;;2.00;99.90;;;;;;5075391;28;20460;-71
2022/01/16 11:35:34;;;;;;;34.17;19.00;;;2.00;99.90;;;;;;5075052;28;20461;-71
2022/01/16 11:38:01;;;;;;;34.00;19.30;;;2.00;99.90;;;;;;5075265;28;20462;-72
2022/01/16 11:40:38;;;;;;;32.33;19.30;;;2.00;99.90;;;;;;5075445;28;20469;-72
2022/01/16 11:43:23;;;;;;;34.57;19.13;;;2.00;99.90;;;;;;5075879;28;20517;-72
2022/01/16 11:45:55;;;;;;;37.67;20.80;;;2.00;99.90;;;;;;5073642;28;20446;-72
2022/01/16 11:48:44;;;;;;;35.40;19.00;;;2.00;99.90;;;;;;5074691;28;20569;-72
2022/01/16 11:51:52;;;;;;;33.57;19.97;;;2.10;99.90;;;;;;5074819;28;20438;-72
2022/01/16 11:54:27;;;;;;;35.00;19.73;;;2.10;99.90;;;;;;5075900;28;20481;-73
2022/01/16 11:57:26;;;;;;;31.87;20.07;;;2.10;99.90;;;;;;5076020;28;20513;-72
2022/01/16 12:00:07;;;;;;;33.53;19.93;;;2.10;99.90;;;;;;5074967;28;20718;-72
2022/01/16 12:02:39;;;;;;;37.53;20.70;;;2.20;99.90;;;;;;5075311;28;20453;-72
2022/01/16 12:05:11;;;;;;;34.03;20.40;;;2.20;99.90;;;;;;5074959;28;20469;-72
2022/01/16 12:07:46;;;;;;;37.27;21.83;;;2.30;99.90;;;;;;5074926;28;20492;-72
2022/01/16 12:10:29;;;;;;;38.10;22.40;;;2.40;99.90;;;;;;5074947;28;20442;-73
2022/01/16 12:12:55;;;;;;;41.27;23.33;;;2.40;99.90;;;;;;5074505;28;20463;-72
2022/01/16 12:15:22;;;;;;;42.10;23.37;;;2.50;99.90;;;;;;5074028;28;20489;-72
2022/01/16 12:17:49;;;;;;;48.90;25.20;;;2.50;99.90;;;;;;5074305;28;20458;-71
2022/01/16 12:20:26;;;;;;;45.73;24.50;;;2.60;99.90;;;;;;5074704;28;20460;-71
2022/01/16 12:22:55;;;;;;;41.93;21.70;;;2.60;99.90;;;;;;5074665;28;20460;-72
2022/01/16 12:25:23;;;;;;;41.57;24.70;;;2.60;99.90;;;;;;5074678;28;20454;-71
2022/01/16 12:27:52;;;;;;;47.80;25.67;;;2.60;99.90;;;;;;5074734;28;20464;-72
2022/01/16 12:30:48;;;;;;;42.30;24.87;;;2.60;99.90;;;;;;5075043;28;20458;-73
2022/01/16 12:33:36;;;;;;;45.17;25.57;;;2.60;99.90;;;;;;5040324;28;20917;-72
2022/01/16 12:36:15;;;;;;;39.03;24.17;;;2.60;99.90;;;;;;5074303;28;20434;-72
2022/01/16 12:39:01;;;;;;;42.00;24.80;;;2.70;99.90;;;;;;5074785;28;20529;-71
2022/01/16 12:41:31;;;;;;;40.43;23.70;;;2.70;99.90;;;;;;5076104;28;20512;-73
2022/01/16 12:44:01;;;;;;;44.10;25.50;;;2.80;99.90;;;;;;5076869;28;20434;-72
2022/01/16 12:46:31;;;;;;;46.63;26.97;;;2.80;99.90;;;;;;5077109;28;20454;-72
2022/01/16 12:49:02;;;;;;;43.13;25.50;;;2.90;99.90;;;;;;5081041;28;20554;-71
2022/01/16 12:51:35;;;;;;;45.07;24.23;;;2.90;99.90;;;;;;5084768;28;20442;-73
2022/01/16 12:54:06;;;;;;;34.60;22.43;;;2.90;99.90;;;;;;5084471;28;20477;-77
2022/01/16 12:56:35;;;;;;;42.17;23.07;;;3.00;99.90;;;;;;5081053;28;20456;-72
2022/01/16 12:59:12;;;;;;;37.77;23.10;;;3.00;99.90;;;;;;5079903;28;20458;-72
2022/01/16 13:01:44;;;;;;;37.93;24.33;;;3.00;99.90;;;;;;5078349;28;20438;-72
2022/01/16 13:04:19;;;;;;;42.93;24.37;;;3.10;99.90;;;;;;5078616;28;20504;-72
2022/01/16 13:06:47;;;;;;;36.60;23.60;;;3.10;99.90;;;;;;5078498;28;20438;-72
2022/01/16 13:09:14;;;;;;;49.23;27.07;;;3.10;99.90;;;;;;5077747;28;20462;-71
2022/01/16 13:11:44;;;;;;;42.13;23.03;;;3.10;99.90;;;;;;5077894;28;20455;-72
2022/01/16 13:14:13;;;;;;;43.10;26.43;;;3.10;99.90;;;;;;5077791;28;20486;-71
2022/01/16 13:16:42;;;;;;;38.47;22.83;;;3.10;99.90;;;;;;5077324;28;20489;-71
2022/01/16 13:19:14;;;;;;;38.90;24.47;;;3.10;99.90;;;;;;5077554;28;20459;-71
2022/01/16 13:22:05;;;;;;;40.37;23.63;;;3.20;99.90;;;;;;5077505;28;20512;-72
2022/01/16 13:24:35;;;;;;;38.43;22.33;;;3.20;99.90;;;;;;5077724;28;20438;-71
2022/01/16 13:27:04;;;;;;;37.80;21.97;;;3.20;99.90;;;;;;5077537;28;20446;-71
2022/01/16 13:29:37;;;;;;;41.47;24.20;;;3.20;99.90;;;;;;5076824;28;20949;-71
2022/01/16 13:32:06;;;;;;;45.77;24.17;;;3.20;99.90;;;;;;5077444;28;20470;-71